sensor_id;sensor_type;location;lat;lon;timestamp;temperature;humidity
20862;DHT22;10591;52.532;13.348;2023-07-30T00:01:37;17.26;87.89
20862;DHT22;10591;52.532;13.348;2023-07-30T00:04:09;17.27;87.75
20862;DHT22;10591;52.532;13.348;2023-07-30T00:06:39;17.23;87.70
20862;DHT22;10591;52.532;13.348;2023-07-30T00:09:10;17.16;87.79
20862;DHT22;10591;52.532;13.348;2023-07-30T00:11:41;17.16;87.85
20862;DHT22;10591;52.532;13.348;2023-07-30T00:14:14;17.18;87.85
20862;DHT22;10591;52.532;13.348;2023-07-30T00:16:46;17.10;87.78
20862;DHT22;10591;52.532;13.348;2023-07-30T00:19:17;17.00;87.88
20862;DHT22;10591;52.532;13.348;2023-07-30T00:21:50;16.99;87.94
20862;DHT22;10591;52.532;13.348;2023-07-30T00:24:21;17.01;87.95
20862;DHT22;10591;52.532;13.348;2023-07-30T00:26:51;16.91;88.05
20862;DHT22;10591;52.532;13.348;2023-07-30T00:29:22;16.90;88.02
20862;DHT22;10591;52.532;13.348;2023-07-30T00:31:54;16.92;87.95
20862;DHT22;10591;52.532;13.348;2023-07-30T00:34:25;16.88;87.94
20862;DHT22;10591;52.532;13.348;2023-07-30T00:36:55;16.82;87.81
20862;DHT22;10591;52.532;13.348;2023-07-30T00:39:26;16.78;87.99
20862;DHT22;10591;52.532;13.348;2023-07-30T00:41:56;16.80;87.88
20862;DHT22;10591;52.532;13.348;2023-07-30T00:44:28;16.77;87.96
20862;DHT22;10591;52.532;13.348;2023-07-30T00:46:58;16.65;88.05
20862;DHT22;10591;52.532;13.348;2023-07-30T00:49:29;16.64;88.05
20862;DHT22;10591;52.532;13.348;2023-07-30T00:52:00;16.58;88.15
20862;DHT22;10591;52.532;13.348;2023-07-30T00:54:31;16.51;88.16
20862;DHT22;10591;52.532;13.348;2023-07-30T00:57:02;16.48;88.20
20862;DHT22;10591;52.532;13.348;2023-07-30T00:59:33;16.52;88.11
20862;DHT22;10591;52.532;13.348;2023-07-30T01:02:06;16.45;88.12
20862;DHT22;10591;52.532;13.348;2023-07-30T01:04:38;16.48;88.08
20862;DHT22;10591;52.532;13.348;2023-07-30T01:07:10;16.50;88.16
20862;DHT22;10591;52.532;13.348;2023-07-30T01:09:41;16.50;88.01
20862;DHT22;10591;52.532;13.348;2023-07-30T01:12:13;16.44;88.14
20862;DHT22;10591;52.532;13.348;2023-07-30T01:14:46;16.35;88.19
20862;DHT22;10591;52.532;13.348;2023-07-30T01:17:18;16.34;88.26
20862;DHT22;10591;52.532;13.348;2023-07-30T01:19:53;16.30;88.36
20862;DHT22;10591;52.532;13.348;2023-07-30T01:22:28;16.28;88.38
20862;DHT22;10591;52.532;13.348;2023-07-30T01:25:00;16.42;88.23
20862;DHT22;10591;52.532;13.348;2023-07-30T01:27:33;16.28;88.36
20862;DHT22;10591;52.532;13.348;2023-07-30T01:30:08;16.24;88.37
20862;DHT22;10591;52.532;13.348;2023-07-30T01:32:39;16.23;88.33
20862;DHT22;10591;52.532;13.348;2023-07-30T01:35:13;16.19;88.27
20862;DHT22;10591;52.532;13.348;2023-07-30T01:37:44;16.24;88.23
20862;DHT22;10591;52.532;13.348;2023-07-30T01:40:16;16.19;88.36
20862;DHT22;10591;52.532;13.348;2023-07-30T01:42:51;16.12;88.44
20862;DHT22;10591;52.532;13.348;2023-07-30T01:45:23;16.16;88.31
20862;DHT22;10591;52.532;13.348;2023-07-30T01:47:57;16.10;88.48
20862;DHT22;10591;52.532;13.348;2023-07-30T01:50:27;16.14;88.44
20862;DHT22;10591;52.532;13.348;2023-07-30T01:52:59;16.08;88.55
20862;DHT22;10591;52.532;13.348;2023-07-30T01:55:29;16.00;88.55
20862;DHT22;10591;52.532;13.348;2023-07-30T01:58:00;15.97;88.63
20862;DHT22;10591;52.532;13.348;2023-07-30T02:00:30;16.12;88.62
20862;DHT22;10591;52.532;13.348;2023-07-30T02:03:01;16.12;88.51
20862;DHT22;10591;52.532;13.348;2023-07-30T02:05:32;16.10;88.62
20862;DHT22;10591;52.532;13.348;2023-07-30T02:08:03;16.10;88.64
20862;DHT22;10591;52.532;13.348;2023-07-30T02:10:33;16.10;88.66
20862;DHT22;10591;52.532;13.348;2023-07-30T02:13:04;16.18;88.68
20862;DHT22;10591;52.532;13.348;2023-07-30T02:15:34;16.20;88.46
20862;DHT22;10591;52.532;13.348;2023-07-30T02:18:06;16.18;88.46
20862;DHT22;10591;52.532;13.348;2023-07-30T02:20:41;16.03;88.51
20862;DHT22;10591;52.532;13.348;2023-07-30T02:23:14;16.08;88.48
20862;DHT22;10591;52.532;13.348;2023-07-30T02:25:45;15.99;88.55
20862;DHT22;10591;52.532;13.348;2023-07-30T02:28:16;15.98;88.66
20862;DHT22;10591;52.532;13.348;2023-07-30T02:30:47;16.00;88.64
20862;DHT22;10591;52.532;13.348;2023-07-30T02:33:17;16.01;88.60
20862;DHT22;10591;52.532;13.348;2023-07-30T02:35:50;16.12;88.70
20862;DHT22;10591;52.532;13.348;2023-07-30T02:38:21;16.13;88.54
20862;DHT22;10591;52.532;13.348;2023-07-30T02:40:51;16.31;88.49
20862;DHT22;10591;52.532;13.348;2023-07-30T02:43:22;16.20;88.41
20862;DHT22;10591;52.532;13.348;2023-07-30T02:45:52;16.24;88.33
20862;DHT22;10591;52.532;13.348;2023-07-30T02:48:23;16.14;88.45
20862;DHT22;10591;52.532;13.348;2023-07-30T02:50:53;16.16;88.50
20862;DHT22;10591;52.532;13.348;2023-07-30T02:53:24;16.12;88.44
20862;DHT22;10591;52.532;13.348;2023-07-30T02:55:54;16.27;88.42
20862;DHT22;10591;52.532;13.348;2023-07-30T02:58:25;16.12;88.32
20862;DHT22;10591;52.532;13.348;2023-07-30T03:01:02;16.04;88.44
20862;DHT22;10591;52.532;13.348;2023-07-30T03:03:28;16.15;88.40
20862;DHT22;10591;52.532;13.348;2023-07-30T03:05:59;16.24;88.23
20862;DHT22;10591;52.532;13.348;2023-07-30T03:08:29;16.16;88.13
20862;DHT22;10591;52.532;13.348;2023-07-30T03:11:00;16.14;88.12
20862;DHT22;10591;52.532;13.348;2023-07-30T03:13:30;16.08;88.24
20862;DHT22;10591;52.532;13.348;2023-07-30T03:16:01;16.00;88.41
20862;DHT22;10591;52.532;13.348;2023-07-30T03:18:32;15.90;88.48
20862;DHT22;10591;52.532;13.348;2023-07-30T03:21:03;15.91;88.43
20862;DHT22;10591;52.532;13.348;2023-07-30T03:23:34;15.93;88.41
20862;DHT22;10591;52.532;13.348;2023-07-30T03:26:04;15.98;88.31
20862;DHT22;10591;52.532;13.348;2023-07-30T03:28:35;16.02;88.13
20862;DHT22;10591;52.532;13.348;2023-07-30T03:31:07;15.95;88.25
20862;DHT22;10591;52.532;13.348;2023-07-30T03:33:38;15.92;88.30
20862;DHT22;10591;52.532;13.348;2023-07-30T03:36:11;15.93;88.39
20862;DHT22;10591;52.532;13.348;2023-07-30T03:38:43;15.90;88.43
20862;DHT22;10591;52.532;13.348;2023-07-30T03:41:14;15.99;88.39
20862;DHT22;10591;52.532;13.348;2023-07-30T03:43:45;16.09;88.08
20862;DHT22;10591;52.532;13.348;2023-07-30T03:46:15;16.18;88.13
20862;DHT22;10591;52.532;13.348;2023-07-30T03:48:47;16.17;88.08
20862;DHT22;10591;52.532;13.348;2023-07-30T03:51:17;16.13;88.13
20862;DHT22;10591;52.532;13.348;2023-07-30T03:53:48;16.05;88.26
20862;DHT22;10591;52.532;13.348;2023-07-30T03:56:19;16.18;88.03
20862;DHT22;10591;52.532;13.348;2023-07-30T03:58:49;16.20;87.99
20862;DHT22;10591;52.532;13.348;2023-07-30T04:01:20;16.41;87.71
20862;DHT22;10591;52.532;13.348;2023-07-30T04:03:51;16.27;87.68
20862;DHT22;10591;52.532;13.348;2023-07-30T04:06:22;16.32;87.62
20862;DHT22;10591;52.532;13.348;2023-07-30T04:08:52;16.52;87.45
20862;DHT22;10591;52.532;13.348;2023-07-30T04:11:23;16.48;87.27
20862;DHT22;10591;52.532;13.348;2023-07-30T04:13:53;16.57;87.25
20862;DHT22;10591;52.532;13.348;2023-07-30T04:16:24;16.64;86.96
20862;DHT22;10591;52.532;13.348;2023-07-30T04:18:54;16.94;86.36
20862;DHT22;10591;52.532;13.348;2023-07-30T04:21:26;16.92;86.29
20862;DHT22;10591;52.532;13.348;2023-07-30T04:23:57;17.14;86.17
20862;DHT22;10591;52.532;13.348;2023-07-30T04:26:27;16.80;86.16
20862;DHT22;10591;52.532;13.348;2023-07-30T04:28:58;16.73;86.26
20862;DHT22;10591;52.532;13.348;2023-07-30T04:31:28;16.75;86.36
20862;DHT22;10591;52.532;13.348;2023-07-30T04:33:59;16.88;86.16
20862;DHT22;10591;52.532;13.348;2023-07-30T04:36:30;17.00;85.85
20862;DHT22;10591;52.532;13.348;2023-07-30T04:39:00;16.96;85.64
20862;DHT22;10591;52.532;13.348;2023-07-30T04:41:31;17.06;85.62
20862;DHT22;10591;52.532;13.348;2023-07-30T04:44:03;17.25;85.26
20862;DHT22;10591;52.532;13.348;2023-07-30T04:46:34;17.39;85.02
20862;DHT22;10591;52.532;13.348;2023-07-30T04:49:05;17.62;84.46
20862;DHT22;10591;52.532;13.348;2023-07-30T04:51:35;17.74;83.55
20862;DHT22;10591;52.532;13.348;2023-07-30T04:54:07;17.68;82.84
20862;DHT22;10591;52.532;13.348;2023-07-30T04:56:39;17.80;82.90
20862;DHT22;10591;52.532;13.348;2023-07-30T04:59:10;18.00;82.56
20862;DHT22;10591;52.532;13.348;2023-07-30T05:01:42;18.04;81.74
20862;DHT22;10591;52.532;13.348;2023-07-30T05:04:13;18.44;80.31
20862;DHT22;10591;52.532;13.348;2023-07-30T05:06:44;19.93;76.88
20862;DHT22;10591;52.532;13.348;2023-07-30T05:09:14;21.90;69.94
20862;DHT22;10591;52.532;13.348;2023-07-30T05:11:46;23.42;64.13
20862;DHT22;10591;52.532;13.348;2023-07-30T05:14:17;25.13;59.22
20862;DHT22;10591;52.532;13.348;2023-07-30T05:16:50;25.30;57.55
20862;DHT22;10591;52.532;13.348;2023-07-30T05:19:21;24.88;58.53
20862;DHT22;10591;52.532;13.348;2023-07-30T05:21:52;25.84;56.61
20862;DHT22;10591;52.532;13.348;2023-07-30T05:24:22;26.78;53.73
20862;DHT22;10591;52.532;13.348;2023-07-30T05:26:53;27.63;51.15
20862;DHT22;10591;52.532;13.348;2023-07-30T05:29:23;28.96;48.95
20862;DHT22;10591;52.532;13.348;2023-07-30T05:31:54;28.69;47.06
20862;DHT22;10591;52.532;13.348;2023-07-30T05:34:25;29.12;47.91
20862;DHT22;10591;52.532;13.348;2023-07-30T05:36:55;26.52;52.83
20862;DHT22;10591;52.532;13.348;2023-07-30T05:39:26;25.43;55.46
20862;DHT22;10591;52.532;13.348;2023-07-30T05:41:56;23.93;59.36
20862;DHT22;10591;52.532;13.348;2023-07-30T05:44:27;23.01;62.34
20862;DHT22;10591;52.532;13.348;2023-07-30T05:46:57;22.28;64.44
20862;DHT22;10591;52.532;13.348;2023-07-30T05:49:28;21.51;66.82
20862;DHT22;10591;52.532;13.348;2023-07-30T05:51:58;21.32;67.74
20862;DHT22;10591;52.532;13.348;2023-07-30T05:54:31;21.03;68.82
20862;DHT22;10591;52.532;13.348;2023-07-30T05:57:01;20.98;69.20
20862;DHT22;10591;52.532;13.348;2023-07-30T05:59:32;21.70;67.81
20862;DHT22;10591;52.532;13.348;2023-07-30T06:02:03;23.47;63.02
20862;DHT22;10591;52.532;13.348;2023-07-30T06:04:34;25.58;57.03
20862;DHT22;10591;52.532;13.348;2023-07-30T06:07:05;26.44;54.78
20862;DHT22;10591;52.532;13.348;2023-07-30T06:09:35;26.96;52.54
20862;DHT22;10591;52.532;13.348;2023-07-30T06:12:06;28.21;50.16
20862;DHT22;10591;52.532;13.348;2023-07-30T06:14:37;27.99;50.23
20862;DHT22;10591;52.532;13.348;2023-07-30T06:17:08;28.63;48.67
20862;DHT22;10591;52.532;13.348;2023-07-30T06:19:39;28.51;49.48
20862;DHT22;10591;52.532;13.348;2023-07-30T06:22:09;30.26;46.20
20862;DHT22;10591;52.532;13.348;2023-07-30T06:24:40;31.18;43.99
20862;DHT22;10591;52.532;13.348;2023-07-30T06:27:11;30.19;45.59
20862;DHT22;10591;52.532;13.348;2023-07-30T06:29:42;28.01;49.65
20862;DHT22;10591;52.532;13.348;2023-07-30T06:32:14;26.79;52.29
20862;DHT22;10591;52.532;13.348;2023-07-30T06:34:48;28.46;48.65
20862;DHT22;10591;52.532;13.348;2023-07-30T06:37:20;29.22;47.73
20862;DHT22;10591;52.532;13.348;2023-07-30T06:39:51;28.84;48.48
20862;DHT22;10591;52.532;13.348;2023-07-30T06:42:21;27.29;51.33
20862;DHT22;10591;52.532;13.348;2023-07-30T06:44:52;26.88;52.81
20862;DHT22;10591;52.532;13.348;2023-07-30T06:47:24;26.32;54.04
20862;DHT22;10591;52.532;13.348;2023-07-30T06:49:54;24.48;58.48
20862;DHT22;10591;52.532;13.348;2023-07-30T06:52:26;24.40;58.70
20862;DHT22;10591;52.532;13.348;2023-07-30T06:54:58;24.26;59.48
20862;DHT22;10591;52.532;13.348;2023-07-30T06:57:29;24.23;59.98
20862;DHT22;10591;52.532;13.348;2023-07-30T07:00:00;23.92;60.94
20862;DHT22;10591;52.532;13.348;2023-07-30T07:02:30;24.08;60.94
20862;DHT22;10591;52.532;13.348;2023-07-30T07:05:02;24.18;60.71
20862;DHT22;10591;52.532;13.348;2023-07-30T07:07:37;23.66;61.38
20862;DHT22;10591;52.532;13.348;2023-07-30T07:10:11;23.06;63.57
20862;DHT22;10591;52.532;13.348;2023-07-30T07:12:41;22.50;65.35
20862;DHT22;10591;52.532;13.348;2023-07-30T07:15:12;22.57;65.92
20862;DHT22;10591;52.532;13.348;2023-07-30T07:17:42;22.10;66.61
20862;DHT22;10591;52.532;13.348;2023-07-30T07:20:14;22.04;66.79
20862;DHT22;10591;52.532;13.348;2023-07-30T07:22:45;22.16;66.74
20862;DHT22;10591;52.532;13.348;2023-07-30T07:25:15;22.23;67.22
20862;DHT22;10591;52.532;13.348;2023-07-30T07:27:47;22.55;66.61
20862;DHT22;10591;52.532;13.348;2023-07-30T07:30:18;22.12;67.36
20862;DHT22;10591;52.532;13.348;2023-07-30T07:32:51;22.02;67.72
20862;DHT22;10591;52.532;13.348;2023-07-30T07:35:24;21.82;68.60
20862;DHT22;10591;52.532;13.348;2023-07-30T07:37:54;21.97;68.20
20862;DHT22;10591;52.532;13.348;2023-07-30T07:40:25;21.64;68.93
20862;DHT22;10591;52.532;13.348;2023-07-30T07:42:56;21.52;69.65
20862;DHT22;10591;52.532;13.348;2023-07-30T07:45:27;21.51;70.18
20862;DHT22;10591;52.532;13.348;2023-07-30T07:47:58;22.08;68.27
20862;DHT22;10591;52.532;13.348;2023-07-30T07:50:29;22.22;67.89
20862;DHT22;10591;52.532;13.348;2023-07-30T07:53:01;22.44;67.11
20862;DHT22;10591;52.532;13.348;2023-07-30T07:55:31;22.58;66.70
20862;DHT22;10591;52.532;13.348;2023-07-30T07:58:02;22.53;66.77
20862;DHT22;10591;52.532;13.348;2023-07-30T08:00:34;22.80;66.71
20862;DHT22;10591;52.532;13.348;2023-07-30T08:03:05;22.51;67.52
20862;DHT22;10591;52.532;13.348;2023-07-30T08:05:35;22.56;67.41
20862;DHT22;10591;52.532;13.348;2023-07-30T08:08:07;22.82;66.48
20862;DHT22;10591;52.532;13.348;2023-07-30T08:10:40;22.87;66.06
20862;DHT22;10591;52.532;13.348;2023-07-30T08:13:14;22.84;66.51
20862;DHT22;10591;52.532;13.348;2023-07-30T08:15:48;22.87;66.64
20862;DHT22;10591;52.532;13.348;2023-07-30T08:18:19;23.05;65.36
20862;DHT22;10591;52.532;13.348;2023-07-30T08:20:54;22.97;65.37
20862;DHT22;10591;52.532;13.348;2023-07-30T08:23:24;22.89;65.30
20862;DHT22;10591;52.532;13.348;2023-07-30T08:25:56;22.96;65.61
20862;DHT22;10591;52.532;13.348;2023-07-30T08:28:27;22.76;65.75
20862;DHT22;10591;52.532;13.348;2023-07-30T08:31:02;22.36;66.20
20862;DHT22;10591;52.532;13.348;2023-07-30T08:33:32;22.70;65.21
20862;DHT22;10591;52.532;13.348;2023-07-30T08:36:03;22.45;64.95
20862;DHT22;10591;52.532;13.348;2023-07-30T08:38:34;22.12;65.23
20862;DHT22;10591;52.532;13.348;2023-07-30T08:41:04;22.26;65.51
20862;DHT22;10591;52.532;13.348;2023-07-30T08:43:35;22.80;64.58
20862;DHT22;10591;52.532;13.348;2023-07-30T08:46:05;22.69;63.65
20862;DHT22;10591;52.532;13.348;2023-07-30T08:48:36;22.07;63.56
20862;DHT22;10591;52.532;13.348;2023-07-30T08:51:10;21.87;63.58
20862;DHT22;10591;52.532;13.348;2023-07-30T08:53:41;22.00;63.36
20862;DHT22;10591;52.532;13.348;2023-07-30T08:56:12;22.10;63.51
20862;DHT22;10591;52.532;13.348;2023-07-30T08:58:44;22.42;62.46
20862;DHT22;10591;52.532;13.348;2023-07-30T09:01:18;22.91;60.99
20862;DHT22;10591;52.532;13.348;2023-07-30T09:03:51;23.09;59.87
20862;DHT22;10591;52.532;13.348;2023-07-30T09:06:23;22.95;60.33
20862;DHT22;10591;52.532;13.348;2023-07-30T09:08:54;23.42;58.99
20862;DHT22;10591;52.532;13.348;2023-07-30T09:11:26;23.20;58.31
20862;DHT22;10591;52.532;13.348;2023-07-30T09:14:02;23.10;60.09
20862;DHT22;10591;52.532;13.348;2023-07-30T09:16:32;23.07;59.90
20862;DHT22;10591;52.532;13.348;2023-07-30T09:19:03;23.07;60.23
20862;DHT22;10591;52.532;13.348;2023-07-30T09:21:36;22.99;60.70
20862;DHT22;10591;52.532;13.348;2023-07-30T09:24:07;22.85;60.17
20862;DHT22;10591;52.532;13.348;2023-07-30T09:26:45;22.44;60.64
20862;DHT22;10591;52.532;13.348;2023-07-30T09:29:17;22.22;61.51
20862;DHT22;10591;52.532;13.348;2023-07-30T09:31:52;22.12;62.41
20862;DHT22;10591;52.532;13.348;2023-07-30T09:34:27;22.25;62.13
20862;DHT22;10591;52.532;13.348;2023-07-30T09:37:01;22.48;61.57
20862;DHT22;10591;52.532;13.348;2023-07-30T09:39:33;22.40;60.63
20862;DHT22;10591;52.532;13.348;2023-07-30T09:42:06;22.31;61.90
20862;DHT22;10591;52.532;13.348;2023-07-30T09:44:38;22.16;61.11
20862;DHT22;10591;52.532;13.348;2023-07-30T09:47:12;21.85;60.82
20862;DHT22;10591;52.532;13.348;2023-07-30T09:49:42;21.63;60.81
20862;DHT22;10591;52.532;13.348;2023-07-30T09:52:14;21.50;61.78
20862;DHT22;10591;52.532;13.348;2023-07-30T09:54:48;21.64;62.54
20862;DHT22;10591;52.532;13.348;2023-07-30T09:57:23;22.03;62.07
20862;DHT22;10591;52.532;13.348;2023-07-30T09:59:53;22.02;62.04
20862;DHT22;10591;52.532;13.348;2023-07-30T10:02:25;22.08;61.19
20862;DHT22;10591;52.532;13.348;2023-07-30T10:04:57;22.15;59.46
20862;DHT22;10591;52.532;13.348;2023-07-30T10:07:31;22.45;58.17
20862;DHT22;10591;52.532;13.348;2023-07-30T10:10:05;22.97;56.28
20862;DHT22;10591;52.532;13.348;2023-07-30T10:12:38;23.10;56.67
20862;DHT22;10591;52.532;13.348;2023-07-30T10:15:11;22.98;56.90
20862;DHT22;10591;52.532;13.348;2023-07-30T10:17:42;22.91;55.93
20862;DHT22;10591;52.532;13.348;2023-07-30T10:20:27;23.40;55.70
20862;DHT22;10591;52.532;13.348;2023-07-30T10:23:00;23.72;53.99
20862;DHT22;10591;52.532;13.348;2023-07-30T10:25:48;23.93;52.01
20862;DHT22;10591;52.532;13.348;2023-07-30T10:28:33;24.08;51.39
20862;DHT22;10591;52.532;13.348;2023-07-30T10:31:07;24.02;52.33
20862;DHT22;10591;52.532;13.348;2023-07-30T10:33:51;24.11;53.42
20862;DHT22;10591;52.532;13.348;2023-07-30T10:39:14;24.17;52.95
20862;DHT22;10591;52.532;13.348;2023-07-30T10:41:48;24.12;52.67
20862;DHT22;10591;52.532;13.348;2023-07-30T10:47:00;24.12;52.82
20862;DHT22;10591;52.532;13.348;2023-07-30T10:49:41;24.44;52.29
20862;DHT22;10591;52.532;13.348;2023-07-30T10:52:17;24.62;52.44
20862;DHT22;10591;52.532;13.348;2023-07-30T10:54:48;24.51;51.92
20862;DHT22;10591;52.532;13.348;2023-07-30T10:57:18;24.48;51.50
20862;DHT22;10591;52.532;13.348;2023-07-30T10:59:51;24.27;51.57
20862;DHT22;10591;52.532;13.348;2023-07-30T11:02:28;24.56;51.20
20862;DHT22;10591;52.532;13.348;2023-07-30T11:05:10;24.60;50.09
20862;DHT22;10591;52.532;13.348;2023-07-30T11:07:33;24.80;49.14
20862;DHT22;10591;52.532;13.348;2023-07-30T11:10:04;24.78;49.66
20862;DHT22;10591;52.532;13.348;2023-07-30T11:12:35;24.85;49.67
20862;DHT22;10591;52.532;13.348;2023-07-30T11:15:10;24.53;49.88
20862;DHT22;10591;52.532;13.348;2023-07-30T11:17:40;25.01;49.30
20862;DHT22;10591;52.532;13.348;2023-07-30T11:20:24;25.38;45.76
20862;DHT22;10591;52.532;13.348;2023-07-30T11:22:58;25.66;45.85
20862;DHT22;10591;52.532;13.348;2023-07-30T11:25:29;25.59;44.82
20862;DHT22;10591;52.532;13.348;2023-07-30T11:28:00;25.51;46.39
20862;DHT22;10591;52.532;13.348;2023-07-30T11:30:32;25.48;45.67
20862;DHT22;10591;52.532;13.348;2023-07-30T11:33:04;25.30;44.95
20862;DHT22;10591;52.532;13.348;2023-07-30T11:35:37;25.24;44.88
20862;DHT22;10591;52.532;13.348;2023-07-30T11:38:09;25.44;43.84
20862;DHT22;10591;52.532;13.348;2023-07-30T11:40:41;25.24;45.61
20862;DHT22;10591;52.532;13.348;2023-07-30T11:43:12;25.21;45.87
20862;DHT22;10591;52.532;13.348;2023-07-30T11:45:43;25.01;46.30
20862;DHT22;10591;52.532;13.348;2023-07-30T11:48:17;25.00;45.98
20862;DHT22;10591;52.532;13.348;2023-07-30T11:50:51;24.88;46.12
20862;DHT22;10591;52.532;13.348;2023-07-30T11:53:43;25.24;45.67
20862;DHT22;10591;52.532;13.348;2023-07-30T11:55:56;25.42;45.82
20862;DHT22;10591;52.532;13.348;2023-07-30T11:58:28;25.64;44.73
20862;DHT22;10591;52.532;13.348;2023-07-30T12:00:59;25.54;45.41
20862;DHT22;10591;52.532;13.348;2023-07-30T12:03:30;25.74;45.36
20862;DHT22;10591;52.532;13.348;2023-07-30T12:06:05;25.69;44.56
20862;DHT22;10591;52.532;13.348;2023-07-30T12:08:36;25.52;44.78
20862;DHT22;10591;52.532;13.348;2023-07-30T12:11:08;24.85;46.54
20862;DHT22;10591;52.532;13.348;2023-07-30T12:13:48;24.90;46.84
20862;DHT22;10591;52.532;13.348;2023-07-30T12:16:16;25.35;46.54
20862;DHT22;10591;52.532;13.348;2023-07-30T12:18:48;25.60;45.65
20862;DHT22;10591;52.532;13.348;2023-07-30T12:21:20;25.87;44.55
20862;DHT22;10591;52.532;13.348;2023-07-30T12:23:52;25.55;44.45
20862;DHT22;10591;52.532;13.348;2023-07-30T12:26:23;25.78;43.81
20862;DHT22;10591;52.532;13.348;2023-07-30T12:28:54;25.50;44.21
20862;DHT22;10591;52.532;13.348;2023-07-30T12:31:25;25.42;45.30
20862;DHT22;10591;52.532;13.348;2023-07-30T12:33:55;25.46;45.76
20862;DHT22;10591;52.532;13.348;2023-07-30T12:36:26;25.31;45.75
20862;DHT22;10591;52.532;13.348;2023-07-30T12:38:57;25.40;45.89
20862;DHT22;10591;52.532;13.348;2023-07-30T12:41:28;24.90;47.27
20862;DHT22;10591;52.532;13.348;2023-07-30T12:43:59;25.18;46.68
20862;DHT22;10591;52.532;13.348;2023-07-30T12:46:30;25.50;46.59
20862;DHT22;10591;52.532;13.348;2023-07-30T12:49:02;25.61;46.44
20862;DHT22;10591;52.532;13.348;2023-07-30T12:51:35;25.82;45.38
20862;DHT22;10591;52.532;13.348;2023-07-30T12:54:08;25.99;44.47
20862;DHT22;10591;52.532;13.348;2023-07-30T12:56:41;25.89;44.89
20862;DHT22;10591;52.532;13.348;2023-07-30T12:59:13;25.88;45.68
20862;DHT22;10591;52.532;13.348;2023-07-30T13:01:44;25.58;45.45
20862;DHT22;10591;52.532;13.348;2023-07-30T13:04:16;25.53;45.51
20862;DHT22;10591;52.532;13.348;2023-07-30T13:06:46;25.93;44.23
20862;DHT22;10591;52.532;13.348;2023-07-30T13:09:18;26.17;44.12
20862;DHT22;10591;52.532;13.348;2023-07-30T13:11:50;26.20;43.59
20862;DHT22;10591;52.532;13.348;2023-07-30T13:14:21;26.43;43.09
20862;DHT22;10591;52.532;13.348;2023-07-30T13:16:51;26.15;43.45
20862;DHT22;10591;52.532;13.348;2023-07-30T13:19:22;26.36;43.31
20862;DHT22;10591;52.532;13.348;2023-07-30T13:21:53;26.41;43.55
20862;DHT22;10591;52.532;13.348;2023-07-30T13:24:25;26.48;42.89
20862;DHT22;10591;52.532;13.348;2023-07-30T13:26:58;26.16;42.35
20862;DHT22;10591;52.532;13.348;2023-07-30T13:29:28;26.28;41.42
20862;DHT22;10591;52.532;13.348;2023-07-30T13:32:00;26.08;42.27
20862;DHT22;10591;52.532;13.348;2023-07-30T13:34:34;26.04;42.50
20862;DHT22;10591;52.532;13.348;2023-07-30T13:37:04;25.75;41.83
20862;DHT22;10591;52.532;13.348;2023-07-30T13:39:35;25.67;42.13
20862;DHT22;10591;52.532;13.348;2023-07-30T13:42:09;25.56;42.51
20862;DHT22;10591;52.532;13.348;2023-07-30T13:44:39;25.66;41.69
20862;DHT22;10591;52.532;13.348;2023-07-30T13:47:10;25.54;40.77
20862;DHT22;10591;52.532;13.348;2023-07-30T13:49:44;25.62;40.91
20862;DHT22;10591;52.532;13.348;2023-07-30T13:52:16;25.34;40.27
20862;DHT22;10591;52.532;13.348;2023-07-30T13:54:49;25.30;40.84
20862;DHT22;10591;52.532;13.348;2023-07-30T13:57:23;25.36;41.69
20862;DHT22;10591;52.532;13.348;2023-07-30T13:59:58;25.11;42.74
20862;DHT22;10591;52.532;13.348;2023-07-30T14:02:28;25.18;42.48
20862;DHT22;10591;52.532;13.348;2023-07-30T14:05:00;25.20;42.88
20862;DHT22;10591;52.532;13.348;2023-07-30T14:07:31;25.12;43.40
20862;DHT22;10591;52.532;13.348;2023-07-30T14:10:01;24.96;43.89
20862;DHT22;10591;52.532;13.348;2023-07-30T14:12:32;24.62;44.54
20862;DHT22;10591;52.532;13.348;2023-07-30T14:15:06;24.21;45.06
20862;DHT22;10591;52.532;13.348;2023-07-30T14:17:37;24.20;44.99
20862;DHT22;10591;52.532;13.348;2023-07-30T14:20:08;24.13;45.80
20862;DHT22;10591;52.532;13.348;2023-07-30T14:22:39;23.97;46.96
20862;DHT22;10591;52.532;13.348;2023-07-30T14:25:10;23.60;47.89
20862;DHT22;10591;52.532;13.348;2023-07-30T14:27:40;23.89;48.02
20862;DHT22;10591;52.532;13.348;2023-07-30T14:30:14;23.70;48.46
20862;DHT22;10591;52.532;13.348;2023-07-30T14:32:44;23.98;48.52
20862;DHT22;10591;52.532;13.348;2023-07-30T14:35:15;23.54;50.39
20862;DHT22;10591;52.532;13.348;2023-07-30T14:37:47;23.10;52.14
20862;DHT22;10591;52.532;13.348;2023-07-30T14:40:21;22.84;52.40
20862;DHT22;10591;52.532;13.348;2023-07-30T14:42:54;22.48;52.28
20862;DHT22;10591;52.532;13.348;2023-07-30T14:45:27;22.56;51.66
20862;DHT22;10591;52.532;13.348;2023-07-30T14:47:58;22.48;51.87
20862;DHT22;10591;52.532;13.348;2023-07-30T14:50:30;22.35;52.02
20862;DHT22;10591;52.532;13.348;2023-07-30T14:53:00;22.45;52.22
20862;DHT22;10591;52.532;13.348;2023-07-30T14:55:34;22.22;52.41
20862;DHT22;10591;52.532;13.348;2023-07-30T14:58:07;22.09;53.20
20862;DHT22;10591;52.532;13.348;2023-07-30T15:00:38;21.80;55.80
20862;DHT22;10591;52.532;13.348;2023-07-30T15:03:13;21.36;58.82
20862;DHT22;10591;52.532;13.348;2023-07-30T15:05:44;21.14;60.44
20862;DHT22;10591;52.532;13.348;2023-07-30T15:08:15;21.01;61.67
20862;DHT22;10591;52.532;13.348;2023-07-30T15:10:49;20.72;62.27
20862;DHT22;10591;52.532;13.348;2023-07-30T15:13:25;20.73;63.07
20862;DHT22;10591;52.532;13.348;2023-07-30T15:15:57;20.80;62.64
20862;DHT22;10591;52.532;13.348;2023-07-30T15:18:28;21.14;63.07
20862;DHT22;10591;52.532;13.348;2023-07-30T15:21:00;21.58;61.28
20862;DHT22;10591;52.532;13.348;2023-07-30T15:23:33;21.65;61.47
20862;DHT22;10591;52.532;13.348;2023-07-30T15:26:03;21.95;60.63
20862;DHT22;10591;52.532;13.348;2023-07-30T15:28:34;21.69;60.74
20862;DHT22;10591;52.532;13.348;2023-07-30T15:31:06;21.78;61.82
20862;DHT22;10591;52.532;13.348;2023-07-30T15:33:37;21.88;61.34
20862;DHT22;10591;52.532;13.348;2023-07-30T15:36:11;22.04;61.21
20862;DHT22;10591;52.532;13.348;2023-07-30T15:38:43;22.08;61.07
20862;DHT22;10591;52.532;13.348;2023-07-30T15:41:14;22.05;60.61
20862;DHT22;10591;52.532;13.348;2023-07-30T15:43:45;22.06;60.31
20862;DHT22;10591;52.532;13.348;2023-07-30T15:46:17;22.21;59.92
20862;DHT22;10591;52.532;13.348;2023-07-30T15:48:49;22.50;58.78